Imperial, Nebraska
Current Conditions -  °F | °C
As of 5:53 PM on Friday 28 Nov 2014 (Local Time) from KIML Reporting Station
Clear Clear  
Wind Chill: 48°   Ceiling: Unl
Heat Index: 48°   Visibility: 10mi
Dew Point: 18°   Wind: 3mph
Humidity: 30%   Direction: 250°WSW
Pressure: 29.73"   Gusts: NA
Location:  40.52°N, 101.64°W
Report Text: KIML 290053Z AUTO 25003KT 10SM CLR 09/M08 A2973 RMK AO2 SLP078 T00891078
Loading
Personal Weather Stations






























Interactive Weather Map New forecast layout! Learn more

10-Day Weather Forecast

Advertisements
Track Severe Weather on mobile